createdAt,value
2022-09-18T00:01:26.809Z,2.30
2022-09-18T00:03:59.165Z,2.38
2022-09-18T00:06:29.497Z,2.28
2022-09-18T00:08:58.268Z,1.65
2022-09-18T00:11:27.845Z,2.08
2022-09-18T00:13:55.449Z,1.67
2022-09-18T00:16:23.727Z,1.80
2022-09-18T00:18:50.647Z,2.08
2022-09-18T00:21:20.163Z,1.60
2022-09-18T00:23:48.012Z,2.30
2022-09-18T00:26:16.559Z,1.50
2022-09-18T00:28:43.928Z,1.75
2022-09-18T00:31:16.720Z,1.75
2022-09-18T00:33:44.054Z,1.83
2022-09-18T00:36:14.256Z,2.10
2022-09-18T00:38:41.712Z,2.47
2022-09-18T00:41:13.953Z,2.00
2022-09-18T00:43:41.118Z,1.80
2022-09-18T00:46:27.065Z,2.28
2022-09-18T00:49:27.039Z,2.10
2022-09-18T00:51:57.340Z,2.15
2022-09-18T00:54:32.686Z,2.03
2022-09-18T00:59:31.508Z,1.83
2022-09-18T01:01:59.982Z,1.90
2022-09-18T01:04:31.202Z,2.17
2022-09-18T01:07:21.787Z,1.77
2022-09-18T01:10:07.591Z,1.50
2022-09-18T01:15:39.879Z,1.80
2022-09-18T01:18:21.908Z,1.35
2022-09-18T01:21:09.315Z,2.00
2022-09-18T01:23:57.961Z,1.85
2022-09-18T01:26:48.790Z,1.65
2022-09-18T01:29:18.766Z,1.52
2022-09-18T01:31:59.034Z,1.70
2022-09-18T01:34:52.046Z,1.70
2022-09-18T01:37:26.117Z,2.30
2022-09-18T01:40:00.313Z,1.92
2022-09-18T01:42:30.094Z,1.55
2022-09-18T01:45:02.180Z,1.80
2022-09-18T01:47:34.629Z,1.67
2022-09-18T01:50:03.360Z,1.58
2022-09-18T01:52:42.104Z,1.50
2022-09-18T01:55:15.311Z,2.05
2022-09-18T01:57:55.782Z,2.38
2022-09-18T02:00:23.113Z,2.10
2022-09-18T02:02:52.557Z,2.42
2022-09-18T02:05:28.492Z,1.55
2022-09-18T02:08:38.626Z,1.83
2022-09-18T02:11:12.042Z,1.65
2022-09-18T02:13:45.199Z,1.88
2022-09-18T02:16:56.723Z,2.15
2022-09-18T02:19:32.745Z,1.80
2022-09-18T02:22:01.910Z,2.05
2022-09-18T02:24:33.736Z,2.33
2022-09-18T02:27:03.516Z,1.38
2022-09-18T02:29:31.458Z,1.60
2022-09-18T02:32:02.203Z,1.73
2022-09-18T02:34:30.730Z,2.20
2022-09-18T02:37:27.900Z,1.77
2022-09-18T02:40:28.075Z,2.15
2022-09-18T02:43:33.169Z,1.80
2022-09-18T02:46:06.865Z,2.30
2022-09-18T02:49:08.000Z,1.92
2022-09-18T02:51:41.714Z,1.85
2022-09-18T02:54:18.393Z,2.28
2022-09-18T02:57:02.359Z,2.10
2022-09-18T02:59:40.153Z,2.00
2022-09-18T03:02:09.352Z,2.25
2022-09-18T03:04:38.372Z,1.90
2022-09-18T03:07:09.897Z,2.08
2022-09-18T03:09:41.509Z,2.05
2022-09-18T03:12:08.909Z,2.13
2022-09-18T03:14:41.024Z,2.30
2022-09-18T03:17:09.207Z,2.20
2022-09-18T03:19:35.982Z,2.10
2022-09-18T03:22:03.517Z,2.17
2022-09-18T03:24:34.086Z,1.90
2022-09-18T03:27:02.859Z,2.28
2022-09-18T03:29:29.977Z,1.88
2022-09-18T03:31:57.538Z,1.80
2022-09-18T03:34:24.639Z,1.83
2022-09-18T03:36:51.638Z,1.60
2022-09-18T03:39:19.270Z,2.13
2022-09-18T03:41:47.377Z,2.10
2022-09-18T03:44:14.230Z,2.35
2022-09-18T03:46:43.014Z,1.75
2022-09-18T03:49:09.838Z,2.40
2022-09-18T03:51:38.984Z,1.70
2022-09-18T03:54:07.049Z,2.17
2022-09-18T03:57:09.023Z,1.90
2022-09-18T03:59:53.980Z,1.70
2022-09-18T04:02:42.989Z,2.60
2022-09-18T04:05:33.243Z,1.80
2022-09-18T04:08:18.482Z,1.95
2022-09-18T04:11:06.167Z,2.35
2022-09-18T04:13:34.847Z,2.20
2022-09-18T04:16:07.176Z,2.00
2022-09-18T04:18:34.254Z,2.13
2022-09-18T04:21:02.359Z,2.25
2022-09-18T04:23:29.404Z,2.25
2022-09-18T04:25:57.163Z,2.30
2022-09-18T04:28:28.813Z,2.00
2022-09-18T04:30:55.814Z,2.28
2022-09-18T04:33:23.102Z,2.00
2022-09-18T04:35:49.976Z,2.53
2022-09-18T04:38:16.867Z,2.13
2022-09-18T04:40:43.720Z,2.08
2022-09-18T04:43:11.681Z,2.35
2022-09-18T04:45:40.202Z,2.75
2022-09-18T04:48:07.009Z,2.20
2022-09-18T04:50:33.929Z,2.13
2022-09-18T04:53:11.339Z,2.58
2022-09-18T04:55:39.459Z,2.10
2022-09-18T04:58:09.537Z,1.75
2022-09-18T05:00:38.258Z,2.03
2022-09-18T05:03:06.488Z,2.22
2022-09-18T05:05:36.085Z,1.90
2022-09-18T05:08:04.557Z,2.63
2022-09-18T05:10:32.070Z,2.25
2022-09-18T05:13:00.061Z,2.00
2022-09-18T05:15:28.360Z,2.15
2022-09-18T05:18:00.846Z,2.63
2022-09-18T05:20:28.660Z,2.15
2022-09-18T05:23:00.870Z,2.30
2022-09-18T05:25:29.056Z,2.38
2022-09-18T05:27:57.793Z,2.45
2022-09-18T05:30:29.124Z,1.88
2022-09-18T05:33:04.558Z,2.22
2022-09-18T05:35:34.398Z,2.25
2022-09-18T05:38:01.986Z,1.85
2022-09-18T05:40:34.310Z,2.20
2022-09-18T05:43:03.127Z,3.35
2022-09-18T05:45:32.535Z,2.63
2022-09-18T05:48:02.963Z,2.10
2022-09-18T05:50:31.644Z,2.22
2022-09-18T05:53:08.299Z,2.10
2022-09-18T05:56:01.222Z,2.05
2022-09-18T05:58:30.466Z,2.22
2022-09-18T06:00:59.258Z,2.42
2022-09-18T06:03:33.063Z,2.10
2022-09-18T06:06:02.005Z,1.80
2022-09-18T06:08:28.905Z,2.25
2022-09-18T06:11:01.349Z,2.05
2022-09-18T06:13:32.678Z,2.15
2022-09-18T06:15:59.886Z,2.05
2022-09-18T06:18:51.102Z,2.30
2022-09-18T06:21:18.043Z,2.45
2022-09-18T06:23:44.950Z,1.65
2022-09-18T06:26:23.987Z,1.77
2022-09-18T06:28:51.519Z,1.88
2022-09-18T06:31:18.485Z,1.90
2022-09-18T06:34:11.546Z,2.03
2022-09-18T06:36:40.079Z,1.63
2022-09-18T06:39:45.598Z,2.10
2022-09-18T06:42:25.526Z,1.40
2022-09-18T06:45:13.024Z,1.80
2022-09-18T06:47:40.038Z,1.48
2022-09-18T06:50:08.948Z,1.75
2022-09-18T06:52:35.785Z,1.98
2022-09-18T06:55:05.422Z,1.38
2022-09-18T06:57:33.146Z,1.52
2022-09-18T06:59:59.953Z,1.52
2022-09-18T07:02:28.926Z,1.80
2022-09-18T07:05:27.476Z,1.60
2022-09-18T07:07:54.425Z,1.63
2022-09-18T07:10:22.848Z,1.63
2022-09-18T07:12:49.982Z,1.42
2022-09-18T07:15:20.024Z,1.38
2022-09-18T07:17:46.900Z,1.30
2022-09-18T07:20:16.611Z,1.95
2022-09-18T07:22:51.726Z,1.90
2022-09-18T07:25:18.709Z,1.50
2022-09-18T07:27:45.717Z,1.50
2022-09-18T07:30:14.796Z,1.92
2022-09-18T07:32:42.363Z,1.80
2022-09-18T07:35:14.357Z,1.77
2022-09-18T07:37:42.437Z,1.52
2022-09-18T07:40:14.866Z,1.55
2022-09-18T07:43:07.474Z,1.60
2022-09-18T07:45:35.614Z,1.40
2022-09-18T07:48:04.410Z,2.10
2022-09-18T07:50:35.462Z,1.55
2022-09-18T07:53:05.237Z,1.75
2022-09-18T07:55:39.628Z,2.03
2022-09-18T07:58:07.353Z,1.88
2022-09-18T08:00:53.036Z,1.83
2022-09-18T08:03:21.528Z,1.63
2022-09-18T08:06:07.360Z,1.92
2022-09-18T08:08:36.241Z,2.15
2022-09-18T08:11:13.195Z,1.95
2022-09-18T08:14:18.488Z,1.60
2022-09-18T08:17:03.753Z,1.27
2022-09-18T08:19:39.172Z,1.50
2022-09-18T08:22:14.599Z,1.23
2022-09-18T08:24:47.533Z,1.70
2022-09-18T08:27:14.784Z,1.30
2022-09-18T08:29:42.305Z,1.50
2022-09-18T08:32:10.627Z,1.95
2022-09-18T08:34:38.189Z,1.35
2022-09-18T08:37:05.362Z,1.40
2022-09-18T08:39:50.773Z,1.55
2022-09-18T08:42:47.218Z,1.35
2022-09-18T08:45:17.203Z,1.55
2022-09-18T08:48:00.320Z,1.65
2022-09-18T08:50:38.352Z,2.37
2022-09-18T08:53:30.443Z,1.38
2022-09-18T08:56:21.299Z,1.48
2022-09-18T08:59:26.489Z,1.63
2022-09-18T09:02:28.244Z,1.38
2022-09-18T09:05:01.496Z,1.40
2022-09-18T09:07:50.575Z,1.23
2022-09-18T09:10:17.742Z,1.30
2022-09-18T09:13:21.037Z,1.33
2022-09-18T09:16:03.064Z,1.40
2022-09-18T09:18:36.702Z,1.30
2022-09-18T09:21:20.736Z,1.38
2022-09-18T09:23:56.385Z,1.27
2022-09-18T09:26:57.009Z,1.33
2022-09-18T09:30:01.638Z,1.30
2022-09-18T09:33:04.722Z,1.23
2022-09-18T09:36:13.579Z,1.73
2022-09-18T09:39:08.903Z,1.90
2022-09-18T09:41:46.838Z,1.38
2022-09-18T09:44:30.414Z,1.20
2022-09-18T09:47:04.381Z,0.98
2022-09-18T09:49:50.727Z,1.40
2022-09-18T09:52:31.718Z,1.02
2022-09-18T09:55:19.734Z,0.98
2022-09-18T09:58:18.143Z,0.88
2022-09-18T10:00:48.906Z,1.33
2022-09-18T10:03:52.544Z,1.10
2022-09-18T10:07:05.130Z,1.17
2022-09-18T10:09:57.362Z,0.93
2022-09-18T10:12:45.522Z,0.93
2022-09-18T10:15:45.191Z,1.30
2022-09-18T10:18:20.881Z,1.40
2022-09-18T10:20:51.438Z,1.42
2022-09-18T10:23:35.128Z,1.35
2022-09-18T10:26:03.643Z,1.23
2022-09-18T10:28:32.679Z,1.58
2022-09-18T10:31:12.161Z,1.25
2022-09-18T10:33:47.506Z,1.75
2022-09-18T10:36:38.048Z,1.52
2022-09-18T10:39:31.979Z,1.95
2022-09-18T10:42:07.167Z,1.90
2022-09-18T10:44:39.890Z,1.58
2022-09-18T10:47:18.403Z,1.63
2022-09-18T10:49:59.270Z,1.65
2022-09-18T10:52:35.091Z,1.52
2022-09-18T10:55:18.271Z,1.50
2022-09-18T10:58:15.614Z,1.00
2022-09-18T11:03:59.520Z,1.50
2022-09-18T11:06:32.571Z,1.20
2022-09-18T11:09:10.801Z,1.45
2022-09-18T11:11:46.374Z,1.15
2022-09-18T11:14:26.179Z,0.90
2022-09-18T11:17:00.778Z,1.08
2022-09-18T11:19:36.178Z,1.25
2022-09-18T11:22:32.495Z,1.00
2022-09-18T11:25:16.436Z,1.00
2022-09-18T11:27:51.757Z,1.17
2022-09-18T11:30:27.938Z,1.10
2022-09-18T11:33:15.899Z,1.05
2022-09-18T11:35:49.039Z,1.00
2022-09-18T11:38:19.606Z,1.02
2022-09-18T11:40:51.768Z,1.20
2022-09-18T11:43:26.045Z,0.98
2022-09-18T11:46:25.768Z,0.90
2022-09-18T11:49:02.554Z,1.27
2022-09-18T11:51:55.398Z,0.90
2022-09-18T11:54:40.133Z,0.80
2022-09-18T11:57:18.296Z,1.08
2022-09-18T11:59:55.313Z,1.02
2022-09-18T12:05:41.686Z,0.90
2022-09-18T12:08:26.187Z,1.17
2022-09-18T12:11:08.322Z,1.20
2022-09-18T12:13:54.268Z,0.85
2022-09-18T12:16:30.666Z,1.30
2022-09-18T12:19:13.885Z,0.95
2022-09-18T12:22:08.293Z,0.93
2022-09-18T12:24:35.424Z,1.27
2022-09-18T12:27:14.854Z,0.90
2022-09-18T12:30:19.351Z,1.08
2022-09-18T12:33:37.160Z,1.02
2022-09-18T12:36:29.864Z,1.00
2022-09-18T12:39:21.589Z,1.00
2022-09-18T12:41:57.502Z,1.00
2022-09-18T12:44:39.576Z,1.20
2022-09-18T12:47:16.613Z,0.63
2022-09-18T12:50:12.072Z,1.00
2022-09-18T12:52:55.514Z,1.30
2022-09-18T12:55:43.716Z,0.80
2022-09-18T12:58:29.056Z,1.33
2022-09-18T13:01:01.779Z,0.85
2022-09-18T13:03:38.820Z,0.82
2022-09-18T13:06:15.269Z,0.68
2022-09-18T13:08:50.221Z,1.10
2022-09-18T13:11:42.921Z,1.05
2022-09-18T13:14:16.473Z,1.77
2022-09-18T13:16:50.736Z,0.90
2022-09-18T13:19:33.321Z,1.55
2022-09-18T13:22:05.737Z,0.95
2022-09-18T13:24:39.118Z,1.33
2022-09-18T13:27:11.874Z,0.98
2022-09-18T13:29:50.722Z,1.02
2022-09-18T13:32:19.940Z,1.30
2022-09-18T13:35:16.212Z,1.38
2022-09-18T13:40:37.434Z,1.45
2022-09-18T13:43:27.585Z,0.95
2022-09-18T13:46:02.452Z,1.15
2022-09-18T13:48:40.710Z,1.48
2022-09-18T13:51:10.595Z,1.02
2022-09-18T13:53:40.433Z,1.15
2022-09-18T13:56:13.018Z,1.55
2022-09-18T13:58:50.112Z,1.50
2022-09-18T14:01:42.244Z,0.95
2022-09-18T14:04:39.933Z,1.25
2022-09-18T14:07:26.993Z,1.20
2022-09-18T14:10:21.006Z,1.33
2022-09-18T14:13:06.326Z,1.80
2022-09-18T14:15:33.447Z,1.40
2022-09-18T14:18:16.756Z,1.40
2022-09-18T14:20:49.893Z,1.13
2022-09-18T14:23:35.612Z,1.40
2022-09-18T14:26:08.363Z,1.55
2022-09-18T14:28:36.474Z,1.67
2022-09-18T14:31:15.242Z,1.38
2022-09-18T14:33:43.586Z,1.27
2022-09-18T14:36:14.616Z,0.90
2022-09-18T14:38:41.846Z,1.55
2022-09-18T14:41:21.588Z,1.05
2022-09-18T14:43:53.192Z,1.00
2022-09-18T14:46:23.740Z,0.98
2022-09-18T14:48:51.390Z,1.05
2022-09-18T14:51:22.593Z,0.88
2022-09-18T14:53:52.677Z,1.08
2022-09-18T14:56:36.000Z,1.00
2022-09-18T14:59:08.444Z,1.30
2022-09-18T15:01:37.430Z,1.70
2022-09-18T15:04:06.854Z,1.33
